Beijing Capital International Airport

ZBAA | PEK

Beijing , Beijing , China

Thursday, December 12th, 2019 | 00:54

Weather

ZBAA 111630Z 01002MPS 340V060 CAVOK M03/M18 Q1030 NOSIG

Charts

No Charts Available

Gates

397 Available

Runways

3 Available

Events

No events for this airport


New event